Airfield :
LOGIN :

Register | Disclaimer

   EN    FR    IT 

 










Legend :    VFR   Marginal VFR   IFR   Intensive IFR   Very Intensive IFR
Visi :
Ceiling :
>= 8 km
>= 3000ft
5 to 8 km
1000 to 3000 ft
1500m to 5 km
500 to 1000 ft
800 to 1500m
200 to 500 ft
< 800m
< 200 ft
Symbols :   Thunderstorms  Fog  Heavy snow  Heavy precipitations  Wind > 20 kt
SIGMETs :     Misc.  Thunderstorms  Icing  Turbulence  Mountain Waves  Volcanic Ashes







- Airport Elevation : 433 ft
- IATA code : CCF
- Download approach charts


LFMK - Carcassonne

CURRENT METAR :
  • 211200Z AUTO 28013KT 240V310 9999 FEW072 27/20 Q1018 NOSIG

EXPIRED METARs :
  • 211130Z AUTO 27011KT 210V300 CAVOK 26/20 Q1018 NOSIG
  • 211100Z AUTO 26008KT 190V300 9999 FEW020 25/20 Q1019 NOSIG
  • 211030Z AUTO 27009KT 210V320 9999 FEW017 25/20 Q1019 NOSIG
  • 211000Z AUTO 26010KT 220V310 9999 BKN015 24/19 Q1019 NOSIG
  • 210930Z AUTO 27011KT 240V300 9999 FEW015 24/19 Q1019 NOSIG

TAF TAF LFMK
Valid from the 21 at 09:00 until the 22 at 09:00 UTC


210800Z 2109/2209 28012KT CAVOK
TEMPO 2109/2121 FEW030
TEMPO 2116/2121 FEW030CB
BECMG 2202/2204 28015G25KT
No reported NOTAMs for that airfield.



MET'MAP, your aeronautical weather chart ! - Copyright ORBIFLY December 2007 - Disclaimer

ORBIFLY MET'MAP TEAM :

Programming & Development : Alexandra Zaïnal
Concept & Development : Baudouin d'Aumeries
Co-Development & Prog : Marc-Olivier Méhu
Technical & hardware support : Manuel Goepfert

Contact : metmap@orbifly.com




SOURCES & CREDITS :

   NOAA